sensor_id;sensor_type;location;lat;lon;timestamp;P1;durP1;ratioP1;P2;durP2;ratioP2
48685;SDS011;34485;51.536;3.816;2024-03-06T00:01:31;24.70;;;13.98;;
48685;SDS011;34485;51.536;3.816;2024-03-06T00:03:58;25.17;;;14.70;;
48685;SDS011;34485;51.536;3.816;2024-03-06T00:06:23;27.60;;;15.13;;
48685;SDS011;34485;51.536;3.816;2024-03-06T00:08:49;34.30;;;16.43;;
48685;SDS011;34485;51.536;3.816;2024-03-06T00:11:15;25.35;;;14.15;;
48685;SDS011;34485;51.536;3.816;2024-03-06T00:13:41;25.42;;;13.60;;
48685;SDS011;34485;51.536;3.816;2024-03-06T00:16:08;28.73;;;15.70;;
48685;SDS011;34485;51.536;3.816;2024-03-06T00:18:34;26.03;;;15.90;;
48685;SDS011;34485;51.536;3.816;2024-03-06T00:20:59;27.08;;;15.65;;
48685;SDS011;34485;51.536;3.816;2024-03-06T00:23:25;26.10;;;15.47;;
48685;SDS011;34485;51.536;3.816;2024-03-06T00:25:51;21.63;;;12.88;;
48685;SDS011;34485;51.536;3.816;2024-03-06T00:28:16;23.87;;;13.67;;
48685;SDS011;34485;51.536;3.816;2024-03-06T00:30:42;21.83;;;13.68;;
48685;SDS011;34485;51.536;3.816;2024-03-06T00:33:08;23.40;;;12.13;;
48685;SDS011;34485;51.536;3.816;2024-03-06T00:35:33;19.38;;;12.13;;
48685;SDS011;34485;51.536;3.816;2024-03-06T00:37:59;18.33;;;10.00;;
48685;SDS011;34485;51.536;3.816;2024-03-06T00:40:28;26.95;;;15.00;;
48685;SDS011;34485;51.536;3.816;2024-03-06T00:42:57;29.45;;;16.83;;
48685;SDS011;34485;51.536;3.816;2024-03-06T00:45:23;33.63;;;17.87;;
48685;SDS011;34485;51.536;3.816;2024-03-06T00:47:49;32.65;;;17.23;;
48685;SDS011;34485;51.536;3.816;2024-03-06T00:50:15;33.97;;;17.45;;
48685;SDS011;34485;51.536;3.816;2024-03-06T00:52:42;38.17;;;19.63;;
48685;SDS011;34485;51.536;3.816;2024-03-06T00:55:09;37.00;;;18.45;;
48685;SDS011;34485;51.536;3.816;2024-03-06T00:57:35;31.33;;;17.92;;
48685;SDS011;34485;51.536;3.816;2024-03-06T01:00:01;32.38;;;18.48;;
48685;SDS011;34485;51.536;3.816;2024-03-06T01:02:31;32.72;;;18.15;;
48685;SDS011;34485;51.536;3.816;2024-03-06T01:04:57;33.67;;;16.63;;
48685;SDS011;34485;51.536;3.816;2024-03-06T01:07:22;27.97;;;15.67;;
48685;SDS011;34485;51.536;3.816;2024-03-06T01:09:48;29.52;;;16.30;;
48685;SDS011;34485;51.536;3.816;2024-03-06T01:12:14;29.87;;;16.90;;
48685;SDS011;34485;51.536;3.816;2024-03-06T01:14:39;33.13;;;17.73;;
48685;SDS011;34485;51.536;3.816;2024-03-06T01:17:05;36.33;;;18.77;;
48685;SDS011;34485;51.536;3.816;2024-03-06T01:19:31;37.13;;;18.17;;
48685;SDS011;34485;51.536;3.816;2024-03-06T01:21:56;33.87;;;16.33;;
48685;SDS011;34485;51.536;3.816;2024-03-06T01:24:22;27.42;;;15.35;;
48685;SDS011;34485;51.536;3.816;2024-03-06T01:26:48;24.90;;;14.77;;
48685;SDS011;34485;51.536;3.816;2024-03-06T01:29:13;25.17;;;14.93;;
48685;SDS011;34485;51.536;3.816;2024-03-06T01:31:39;11.77;;;7.37;;
48685;SDS011;34485;51.536;3.816;2024-03-06T01:34:05;9.68;;;7.32;;
48685;SDS011;34485;51.536;3.816;2024-03-06T01:36:31;9.90;;;8.03;;
48685;SDS011;34485;51.536;3.816;2024-03-06T01:38:58;34.38;;;18.08;;
48685;SDS011;34485;51.536;3.816;2024-03-06T01:41:23;38.10;;;20.15;;
48685;SDS011;34485;51.536;3.816;2024-03-06T01:43:50;40.50;;;19.92;;
48685;SDS011;34485;51.536;3.816;2024-03-06T01:46:15;36.58;;;20.23;;
48685;SDS011;34485;51.536;3.816;2024-03-06T01:48:41;41.83;;;20.83;;
48685;SDS011;34485;51.536;3.816;2024-03-06T01:51:07;39.80;;;21.02;;
48685;SDS011;34485;51.536;3.816;2024-03-06T01:53:33;43.10;;;21.65;;
48685;SDS011;34485;51.536;3.816;2024-03-06T01:56:00;43.88;;;20.33;;
48685;SDS011;34485;51.536;3.816;2024-03-06T01:58:29;45.15;;;22.80;;
48685;SDS011;34485;51.536;3.816;2024-03-06T02:00:55;41.47;;;21.90;;
48685;SDS011;34485;51.536;3.816;2024-03-06T02:03:23;40.63;;;21.10;;
48685;SDS011;34485;51.536;3.816;2024-03-06T02:05:51;35.70;;;20.15;;
48685;SDS011;34485;51.536;3.816;2024-03-06T02:08:18;41.25;;;21.13;;
48685;SDS011;34485;51.536;3.816;2024-03-06T02:10:44;37.90;;;18.67;;
48685;SDS011;34485;51.536;3.816;2024-03-06T02:13:11;41.95;;;20.13;;
48685;SDS011;34485;51.536;3.816;2024-03-06T02:15:37;53.13;;;24.08;;
48685;SDS011;34485;51.536;3.816;2024-03-06T02:18:06;36.97;;;20.43;;
48685;SDS011;34485;51.536;3.816;2024-03-06T02:20:33;44.78;;;22.50;;
48685;SDS011;34485;51.536;3.816;2024-03-06T02:22:59;51.28;;;23.92;;
48685;SDS011;34485;51.536;3.816;2024-03-06T02:25:25;47.53;;;23.75;;
48685;SDS011;34485;51.536;3.816;2024-03-06T02:27:51;51.57;;;23.93;;
48685;SDS011;34485;51.536;3.816;2024-03-06T02:30:19;45.67;;;23.20;;
48685;SDS011;34485;51.536;3.816;2024-03-06T02:32:48;45.60;;;24.20;;
48685;SDS011;34485;51.536;3.816;2024-03-06T02:35:14;47.10;;;24.02;;
48685;SDS011;34485;51.536;3.816;2024-03-06T02:37:41;48.73;;;23.53;;
48685;SDS011;34485;51.536;3.816;2024-03-06T02:40:08;47.17;;;24.17;;
48685;SDS011;34485;51.536;3.816;2024-03-06T02:42:35;43.22;;;22.50;;
48685;SDS011;34485;51.536;3.816;2024-03-06T02:45:04;45.97;;;23.10;;
48685;SDS011;34485;51.536;3.816;2024-03-06T02:47:31;46.40;;;23.27;;
48685;SDS011;34485;51.536;3.816;2024-03-06T02:49:57;43.15;;;21.88;;
48685;SDS011;34485;51.536;3.816;2024-03-06T02:52:22;46.97;;;23.73;;
48685;SDS011;34485;51.536;3.816;2024-03-06T02:54:48;47.22;;;24.67;;
48685;SDS011;34485;51.536;3.816;2024-03-06T02:57:14;41.20;;;21.27;;
48685;SDS011;34485;51.536;3.816;2024-03-06T02:59:40;42.40;;;23.20;;
48685;SDS011;34485;51.536;3.816;2024-03-06T03:02:05;45.93;;;22.50;;
48685;SDS011;34485;51.536;3.816;2024-03-06T03:04:31;43.33;;;21.98;;
48685;SDS011;34485;51.536;3.816;2024-03-06T03:06:57;42.77;;;21.77;;
48685;SDS011;34485;51.536;3.816;2024-03-06T03:09:23;39.88;;;21.10;;
48685;SDS011;34485;51.536;3.816;2024-03-06T03:11:49;36.28;;;20.50;;
48685;SDS011;34485;51.536;3.816;2024-03-06T03:14:14;35.35;;;20.40;;
48685;SDS011;34485;51.536;3.816;2024-03-06T03:16:40;33.37;;;20.43;;
48685;SDS011;34485;51.536;3.816;2024-03-06T03:19:07;51.28;;;21.98;;
48685;SDS011;34485;51.536;3.816;2024-03-06T03:21:33;49.67;;;23.25;;
48685;SDS011;34485;51.536;3.816;2024-03-06T03:23:59;114.18;;;22.13;;
48685;SDS011;34485;51.536;3.816;2024-03-06T03:26:25;54.25;;;23.15;;
48685;SDS011;34485;51.536;3.816;2024-03-06T03:28:51;49.70;;;22.47;;
48685;SDS011;34485;51.536;3.816;2024-03-06T03:31:17;49.20;;;23.10;;
48685;SDS011;34485;51.536;3.816;2024-03-06T03:33:42;43.03;;;21.77;;
48685;SDS011;34485;51.536;3.816;2024-03-06T03:36:08;48.60;;;24.17;;
48685;SDS011;34485;51.536;3.816;2024-03-06T03:38:37;267.08;;;26.10;;
48685;SDS011;34485;51.536;3.816;2024-03-06T03:41:09;65.20;;;24.45;;
48685;SDS011;34485;51.536;3.816;2024-03-06T03:43:38;44.05;;;22.85;;
48685;SDS011;34485;51.536;3.816;2024-03-06T03:46:04;47.83;;;23.50;;
48685;SDS011;34485;51.536;3.816;2024-03-06T03:48:31;124.97;;;23.33;;
48685;SDS011;34485;51.536;3.816;2024-03-06T03:51:00;179.82;;;25.13;;
48685;SDS011;34485;51.536;3.816;2024-03-06T03:53:28;95.70;;;26.63;;
48685;SDS011;34485;51.536;3.816;2024-03-06T03:55:54;53.35;;;23.13;;
48685;SDS011;34485;51.536;3.816;2024-03-06T03:58:19;64.07;;;25.52;;
48685;SDS011;34485;51.536;3.816;2024-03-06T04:00:45;65.50;;;27.07;;
48685;SDS011;34485;51.536;3.816;2024-03-06T04:03:10;57.83;;;26.77;;
48685;SDS011;34485;51.536;3.816;2024-03-06T04:05:36;68.05;;;28.40;;
48685;SDS011;34485;51.536;3.816;2024-03-06T04:08:02;60.33;;;27.33;;
48685;SDS011;34485;51.536;3.816;2024-03-06T04:10:30;69.00;;;28.88;;
48685;SDS011;34485;51.536;3.816;2024-03-06T04:12:56;63.43;;;30.10;;
48685;SDS011;34485;51.536;3.816;2024-03-06T04:15:24;80.97;;;31.42;;
48685;SDS011;34485;51.536;3.816;2024-03-06T04:17:50;140.75;;;26.85;;
48685;SDS011;34485;51.536;3.816;2024-03-06T04:20:17;65.10;;;29.50;;
48685;SDS011;34485;51.536;3.816;2024-03-06T04:22:43;64.10;;;26.50;;
48685;SDS011;34485;51.536;3.816;2024-03-06T04:25:11;62.95;;;31.02;;
48685;SDS011;34485;51.536;3.816;2024-03-06T04:27:37;61.80;;;27.60;;
48685;SDS011;34485;51.536;3.816;2024-03-06T04:30:03;60.75;;;26.70;;
48685;SDS011;34485;51.536;3.816;2024-03-06T04:32:29;63.50;;;26.75;;
48685;SDS011;34485;51.536;3.816;2024-03-06T04:34:55;60.97;;;26.57;;
48685;SDS011;34485;51.536;3.816;2024-03-06T04:37:21;66.57;;;27.60;;
48685;SDS011;34485;51.536;3.816;2024-03-06T04:39:48;60.70;;;24.20;;
48685;SDS011;34485;51.536;3.816;2024-03-06T04:42:13;57.53;;;25.73;;
48685;SDS011;34485;51.536;3.816;2024-03-06T04:44:39;50.45;;;25.60;;
48685;SDS011;34485;51.536;3.816;2024-03-06T04:47:05;184.13;;;25.00;;
48685;SDS011;34485;51.536;3.816;2024-03-06T04:49:33;154.45;;;23.83;;
48685;SDS011;34485;51.536;3.816;2024-03-06T04:51:59;163.77;;;22.80;;
48685;SDS011;34485;51.536;3.816;2024-03-06T04:54:26;192.18;;;21.13;;
48685;SDS011;34485;51.536;3.816;2024-03-06T04:56:52;259.97;;;25.60;;
48685;SDS011;34485;51.536;3.816;2024-03-06T04:59:18;333.85;;;36.58;;
48685;SDS011;34485;51.536;3.816;2024-03-06T05:01:44;263.05;;;33.33;;
48685;SDS011;34485;51.536;3.816;2024-03-06T05:04:10;245.60;;;31.88;;
48685;SDS011;34485;51.536;3.816;2024-03-06T05:06:37;194.50;;;23.38;;
48685;SDS011;34485;51.536;3.816;2024-03-06T05:09:03;134.50;;;19.43;;
48685;SDS011;34485;51.536;3.816;2024-03-06T05:11:29;139.23;;;20.45;;
48685;SDS011;34485;51.536;3.816;2024-03-06T05:13:57;127.85;;;25.10;;
48685;SDS011;34485;51.536;3.816;2024-03-06T05:16:23;94.93;;;21.17;;
48685;SDS011;34485;51.536;3.816;2024-03-06T05:18:51;114.25;;;22.02;;
48685;SDS011;34485;51.536;3.816;2024-03-06T05:21:17;102.83;;;21.63;;
48685;SDS011;34485;51.536;3.816;2024-03-06T05:23:43;69.50;;;20.67;;
48685;SDS011;34485;51.536;3.816;2024-03-06T05:26:09;53.65;;;20.02;;
48685;SDS011;34485;51.536;3.816;2024-03-06T05:28:35;33.80;;;18.52;;
48685;SDS011;34485;51.536;3.816;2024-03-06T05:31:13;40.85;;;22.23;;
48685;SDS011;34485;51.536;3.816;2024-03-06T05:33:41;189.53;;;24.30;;
48685;SDS011;34485;51.536;3.816;2024-03-06T05:36:07;124.95;;;20.77;;
48685;SDS011;34485;51.536;3.816;2024-03-06T05:38:33;84.55;;;20.75;;
48685;SDS011;34485;51.536;3.816;2024-03-06T05:40:59;50.92;;;19.70;;
48685;SDS011;34485;51.536;3.816;2024-03-06T05:43:25;71.43;;;20.30;;
48685;SDS011;34485;51.536;3.816;2024-03-06T05:45:52;39.60;;;21.10;;
48685;SDS011;34485;51.536;3.816;2024-03-06T05:48:19;39.92;;;23.17;;
48685;SDS011;34485;51.536;3.816;2024-03-06T05:50:45;42.58;;;25.10;;
48685;SDS011;34485;51.536;3.816;2024-03-06T05:53:11;39.80;;;23.70;;
48685;SDS011;34485;51.536;3.816;2024-03-06T05:55:36;42.83;;;25.17;;
48685;SDS011;34485;51.536;3.816;2024-03-06T05:58:02;49.35;;;27.20;;
48685;SDS011;34485;51.536;3.816;2024-03-06T06:00:29;59.00;;;28.25;;
48685;SDS011;34485;51.536;3.816;2024-03-06T06:02:55;51.73;;;27.20;;
48685;SDS011;34485;51.536;3.816;2024-03-06T06:05:21;55.47;;;30.27;;
48685;SDS011;34485;51.536;3.816;2024-03-06T06:07:48;55.97;;;29.55;;
48685;SDS011;34485;51.536;3.816;2024-03-06T06:10:14;61.70;;;32.00;;
48685;SDS011;34485;51.536;3.816;2024-03-06T06:12:39;60.20;;;32.83;;
48685;SDS011;34485;51.536;3.816;2024-03-06T06:15:06;60.22;;;30.45;;
48685;SDS011;34485;51.536;3.816;2024-03-06T06:17:33;63.22;;;29.77;;
48685;SDS011;34485;51.536;3.816;2024-03-06T06:19:59;62.22;;;29.98;;
48685;SDS011;34485;51.536;3.816;2024-03-06T06:22:26;58.40;;;30.60;;
48685;SDS011;34485;51.536;3.816;2024-03-06T06:24:53;62.05;;;29.35;;
48685;SDS011;34485;51.536;3.816;2024-03-06T06:27:20;53.92;;;29.67;;
48685;SDS011;34485;51.536;3.816;2024-03-06T06:29:45;59.43;;;31.00;;
48685;SDS011;34485;51.536;3.816;2024-03-06T06:32:11;52.17;;;27.70;;
48685;SDS011;34485;51.536;3.816;2024-03-06T06:34:37;65.10;;;31.00;;
48685;SDS011;34485;51.536;3.816;2024-03-06T06:37:03;51.15;;;28.23;;
48685;SDS011;34485;51.536;3.816;2024-03-06T06:39:28;56.67;;;29.40;;
48685;SDS011;34485;51.536;3.816;2024-03-06T06:41:54;55.38;;;29.80;;
48685;SDS011;34485;51.536;3.816;2024-03-06T06:44:20;53.80;;;30.27;;
48685;SDS011;34485;51.536;3.816;2024-03-06T06:46:45;54.03;;;30.88;;
48685;SDS011;34485;51.536;3.816;2024-03-06T06:49:11;64.47;;;32.50;;
48685;SDS011;34485;51.536;3.816;2024-03-06T06:51:37;58.78;;;30.85;;
48685;SDS011;34485;51.536;3.816;2024-03-06T06:54:03;54.00;;;28.30;;
48685;SDS011;34485;51.536;3.816;2024-03-06T06:56:29;56.33;;;30.20;;
48685;SDS011;34485;51.536;3.816;2024-03-06T06:58:56;51.08;;;29.50;;
48685;SDS011;34485;51.536;3.816;2024-03-06T07:01:21;56.60;;;28.67;;
48685;SDS011;34485;51.536;3.816;2024-03-06T07:03:47;58.97;;;30.40;;
48685;SDS011;34485;51.536;3.816;2024-03-06T07:06:13;58.20;;;29.80;;
48685;SDS011;34485;51.536;3.816;2024-03-06T07:08:38;50.50;;;29.60;;
48685;SDS011;34485;51.536;3.816;2024-03-06T07:11:04;54.55;;;28.70;;
48685;SDS011;34485;51.536;3.816;2024-03-06T07:13:30;52.00;;;30.17;;
48685;SDS011;34485;51.536;3.816;2024-03-06T07:15:56;63.38;;;31.85;;
48685;SDS011;34485;51.536;3.816;2024-03-06T07:18:21;53.83;;;30.17;;
48685;SDS011;34485;51.536;3.816;2024-03-06T07:20:47;54.88;;;29.25;;
48685;SDS011;34485;51.536;3.816;2024-03-06T07:23:13;59.38;;;32.67;;
48685;SDS011;34485;51.536;3.816;2024-03-06T07:25:39;60.30;;;32.17;;
48685;SDS011;34485;51.536;3.816;2024-03-06T07:28:04;61.13;;;32.38;;
48685;SDS011;34485;51.536;3.816;2024-03-06T07:30:30;72.88;;;32.30;;
48685;SDS011;34485;51.536;3.816;2024-03-06T07:32:56;72.55;;;34.83;;
48685;SDS011;34485;51.536;3.816;2024-03-06T07:35:22;64.07;;;31.52;;
48685;SDS011;34485;51.536;3.816;2024-03-06T07:37:48;68.85;;;33.15;;
48685;SDS011;34485;51.536;3.816;2024-03-06T07:40:14;70.18;;;32.95;;
48685;SDS011;34485;51.536;3.816;2024-03-06T07:42:40;59.67;;;29.77;;
48685;SDS011;34485;51.536;3.816;2024-03-06T07:45:06;64.07;;;33.75;;
48685;SDS011;34485;51.536;3.816;2024-03-06T07:47:35;58.85;;;31.45;;
48685;SDS011;34485;51.536;3.816;2024-03-06T07:50:03;65.13;;;30.93;;
48685;SDS011;34485;51.536;3.816;2024-03-06T07:52:31;57.67;;;31.88;;
48685;SDS011;34485;51.536;3.816;2024-03-06T07:54:57;63.47;;;32.15;;
48685;SDS011;34485;51.536;3.816;2024-03-06T07:57:23;60.30;;;31.13;;
48685;SDS011;34485;51.536;3.816;2024-03-06T07:59:48;66.77;;;31.97;;
48685;SDS011;34485;51.536;3.816;2024-03-06T08:02:16;65.82;;;31.50;;
48685;SDS011;34485;51.536;3.816;2024-03-06T08:04:42;58.45;;;31.55;;
48685;SDS011;34485;51.536;3.816;2024-03-06T08:07:08;61.67;;;29.77;;
48685;SDS011;34485;51.536;3.816;2024-03-06T08:09:34;60.07;;;32.47;;
48685;SDS011;34485;51.536;3.816;2024-03-06T08:12:00;62.63;;;33.15;;
48685;SDS011;34485;51.536;3.816;2024-03-06T08:14:27;61.83;;;32.58;;
48685;SDS011;34485;51.536;3.816;2024-03-06T08:16:53;64.65;;;31.67;;
48685;SDS011;34485;51.536;3.816;2024-03-06T08:19:19;69.45;;;34.03;;
48685;SDS011;34485;51.536;3.816;2024-03-06T08:21:45;62.67;;;33.93;;
48685;SDS011;34485;51.536;3.816;2024-03-06T08:24:11;70.78;;;34.63;;
48685;SDS011;34485;51.536;3.816;2024-03-06T08:26:37;78.38;;;35.72;;
48685;SDS011;34485;51.536;3.816;2024-03-06T08:29:03;66.07;;;33.63;;
48685;SDS011;34485;51.536;3.816;2024-03-06T08:31:29;67.28;;;33.67;;
48685;SDS011;34485;51.536;3.816;2024-03-06T08:33:56;74.35;;;33.50;;
48685;SDS011;34485;51.536;3.816;2024-03-06T08:36:21;60.63;;;32.13;;
48685;SDS011;34485;51.536;3.816;2024-03-06T08:38:49;64.55;;;34.05;;
48685;SDS011;34485;51.536;3.816;2024-03-06T08:41:14;75.70;;;34.88;;
48685;SDS011;34485;51.536;3.816;2024-03-06T08:43:40;65.67;;;33.23;;
48685;SDS011;34485;51.536;3.816;2024-03-06T08:46:06;66.88;;;33.83;;
48685;SDS011;34485;51.536;3.816;2024-03-06T08:48:32;73.40;;;33.57;;
48685;SDS011;34485;51.536;3.816;2024-03-06T08:50:58;77.30;;;32.25;;
48685;SDS011;34485;51.536;3.816;2024-03-06T08:53:23;100.80;;;37.25;;
48685;SDS011;34485;51.536;3.816;2024-03-06T08:55:49;79.93;;;36.07;;
48685;SDS011;34485;51.536;3.816;2024-03-06T08:58:15;81.82;;;39.42;;
48685;SDS011;34485;51.536;3.816;2024-03-06T09:00:41;101.75;;;40.42;;
48685;SDS011;34485;51.536;3.816;2024-03-06T09:03:07;142.05;;;41.03;;
48685;SDS011;34485;51.536;3.816;2024-03-06T09:05:32;147.97;;;40.90;;
48685;SDS011;34485;51.536;3.816;2024-03-06T09:07:58;105.25;;;40.35;;
48685;SDS011;34485;51.536;3.816;2024-03-06T09:10:24;96.15;;;39.60;;
48685;SDS011;34485;51.536;3.816;2024-03-06T09:12:50;131.20;;;39.30;;
48685;SDS011;34485;51.536;3.816;2024-03-06T09:15:15;116.25;;;38.50;;
48685;SDS011;34485;51.536;3.816;2024-03-06T09:17:42;86.20;;;34.10;;
48685;SDS011;34485;51.536;3.816;2024-03-06T09:20:10;88.60;;;34.05;;
48685;SDS011;34485;51.536;3.816;2024-03-06T09:22:36;90.10;;;34.30;;
48685;SDS011;34485;51.536;3.816;2024-03-06T09:25:03;72.88;;;30.40;;
48685;SDS011;34485;51.536;3.816;2024-03-06T09:27:29;70.72;;;30.52;;
48685;SDS011;34485;51.536;3.816;2024-03-06T09:29:55;64.82;;;29.63;;
48685;SDS011;34485;51.536;3.816;2024-03-06T09:32:21;86.18;;;31.95;;
48685;SDS011;34485;51.536;3.816;2024-03-06T09:34:47;74.95;;;28.50;;
48685;SDS011;34485;51.536;3.816;2024-03-06T09:37:13;78.83;;;28.70;;
48685;SDS011;34485;51.536;3.816;2024-03-06T09:39:39;58.97;;;27.83;;
48685;SDS011;34485;51.536;3.816;2024-03-06T09:42:05;60.47;;;30.70;;
48685;SDS011;34485;51.536;3.816;2024-03-06T09:44:32;75.47;;;33.88;;
48685;SDS011;34485;51.536;3.816;2024-03-06T09:46:59;58.13;;;27.85;;
48685;SDS011;34485;51.536;3.816;2024-03-06T09:49:26;53.53;;;27.48;;
48685;SDS011;34485;51.536;3.816;2024-03-06T09:51:52;70.07;;;33.53;;
48685;SDS011;34485;51.536;3.816;2024-03-06T09:54:20;84.50;;;34.97;;
48685;SDS011;34485;51.536;3.816;2024-03-06T09:56:48;66.80;;;32.13;;
48685;SDS011;34485;51.536;3.816;2024-03-06T09:59:14;92.30;;;36.33;;
48685;SDS011;34485;51.536;3.816;2024-03-06T10:01:49;72.22;;;34.53;;
48685;SDS011;34485;51.536;3.816;2024-03-06T10:04:26;74.93;;;35.45;;
48685;SDS011;34485;51.536;3.816;2024-03-06T10:06:53;67.07;;;32.78;;
48685;SDS011;34485;51.536;3.816;2024-03-06T10:09:20;66.00;;;33.78;;
48685;SDS011;34485;51.536;3.816;2024-03-06T10:11:46;57.15;;;30.55;;
48685;SDS011;34485;51.536;3.816;2024-03-06T10:14:13;64.35;;;33.88;;
48685;SDS011;34485;51.536;3.816;2024-03-06T10:16:51;63.97;;;32.03;;
48685;SDS011;34485;51.536;3.816;2024-03-06T10:19:22;61.42;;;31.55;;
48685;SDS011;34485;51.536;3.816;2024-03-06T10:21:49;68.28;;;33.55;;
48685;SDS011;34485;51.536;3.816;2024-03-06T10:24:22;56.70;;;30.17;;
48685;SDS011;34485;51.536;3.816;2024-03-06T10:26:49;58.80;;;31.35;;
48685;SDS011;34485;51.536;3.816;2024-03-06T10:29:20;60.60;;;30.70;;
48685;SDS011;34485;51.536;3.816;2024-03-06T10:31:57;56.40;;;30.58;;
48685;SDS011;34485;51.536;3.816;2024-03-06T10:34:24;70.53;;;34.20;;
48685;SDS011;34485;51.536;3.816;2024-03-06T10:36:54;66.50;;;31.77;;
48685;SDS011;34485;51.536;3.816;2024-03-06T10:39:21;68.95;;;31.00;;
48685;SDS011;34485;51.536;3.816;2024-03-06T10:41:53;68.30;;;30.25;;
48685;SDS011;34485;51.536;3.816;2024-03-06T10:44:28;59.85;;;30.38;;
48685;SDS011;34485;51.536;3.816;2024-03-06T10:49:24;65.80;;;32.37;;
48685;SDS011;34485;51.536;3.816;2024-03-06T10:51:52;69.32;;;32.72;;
48685;SDS011;34485;51.536;3.816;2024-03-06T10:54:29;68.85;;;32.70;;
48685;SDS011;34485;51.536;3.816;2024-03-06T10:56:55;85.93;;;37.47;;
48685;SDS011;34485;51.536;3.816;2024-03-06T10:59:25;90.18;;;39.50;;
48685;SDS011;34485;51.536;3.816;2024-03-06T11:01:58;86.20;;;37.20;;
48685;SDS011;34485;51.536;3.816;2024-03-06T11:04:30;77.68;;;35.85;;
48685;SDS011;34485;51.536;3.816;2024-03-06T11:07:00;64.70;;;32.50;;
48685;SDS011;34485;51.536;3.816;2024-03-06T11:09:27;59.22;;;29.58;;
48685;SDS011;34485;51.536;3.816;2024-03-06T11:11:54;64.25;;;32.70;;
48685;SDS011;34485;51.536;3.816;2024-03-06T11:14:21;67.13;;;30.77;;
48685;SDS011;34485;51.536;3.816;2024-03-06T11:19:25;63.20;;;30.25;;
48685;SDS011;34485;51.536;3.816;2024-03-06T11:21:51;60.88;;;30.10;;
48685;SDS011;34485;51.536;3.816;2024-03-06T11:27:02;61.38;;;30.23;;
48685;SDS011;34485;51.536;3.816;2024-03-06T11:30:02;59.63;;;29.88;;
48685;SDS011;34485;51.536;3.816;2024-03-06T11:32:59;64.47;;;31.73;;
48685;SDS011;34485;51.536;3.816;2024-03-06T11:35:29;69.82;;;32.08;;
48685;SDS011;34485;51.536;3.816;2024-03-06T11:37:55;65.53;;;32.27;;
48685;SDS011;34485;51.536;3.816;2024-03-06T11:40:24;73.75;;;33.10;;
48685;SDS011;34485;51.536;3.816;2024-03-06T11:42:50;68.75;;;33.00;;
48685;SDS011;34485;51.536;3.816;2024-03-06T11:45:17;72.25;;;32.60;;
48685;SDS011;34485;51.536;3.816;2024-03-06T11:48:02;64.68;;;31.23;;
48685;SDS011;34485;51.536;3.816;2024-03-06T11:50:28;54.75;;;28.02;;
48685;SDS011;34485;51.536;3.816;2024-03-06T11:52:57;54.22;;;26.38;;
48685;SDS011;34485;51.536;3.816;2024-03-06T11:55:23;56.37;;;25.73;;
48685;SDS011;34485;51.536;3.816;2024-03-06T11:57:52;54.65;;;26.75;;
48685;SDS011;34485;51.536;3.816;2024-03-06T12:00:22;51.45;;;25.17;;
48685;SDS011;34485;51.536;3.816;2024-03-06T12:02:49;43.92;;;23.92;;
48685;SDS011;34485;51.536;3.816;2024-03-06T12:05:16;50.67;;;26.25;;
48685;SDS011;34485;51.536;3.816;2024-03-06T12:07:51;37.87;;;21.70;;
48685;SDS011;34485;51.536;3.816;2024-03-06T12:10:17;40.38;;;23.00;;
48685;SDS011;34485;51.536;3.816;2024-03-06T12:12:44;38.15;;;20.00;;
48685;SDS011;34485;51.536;3.816;2024-03-06T12:15:10;36.05;;;20.58;;
48685;SDS011;34485;51.536;3.816;2024-03-06T12:17:46;30.88;;;18.38;;
48685;SDS011;34485;51.536;3.816;2024-03-06T12:20:15;29.90;;;18.43;;
48685;SDS011;34485;51.536;3.816;2024-03-06T12:25:20;28.33;;;17.10;;
48685;SDS011;34485;51.536;3.816;2024-03-06T12:27:47;24.77;;;16.35;;
48685;SDS011;34485;51.536;3.816;2024-03-06T12:30:16;23.45;;;16.23;;
48685;SDS011;34485;51.536;3.816;2024-03-06T12:33:01;24.07;;;15.17;;
48685;SDS011;34485;51.536;3.816;2024-03-06T12:35:30;22.95;;;14.90;;
48685;SDS011;34485;51.536;3.816;2024-03-06T12:37:57;22.60;;;14.50;;
48685;SDS011;34485;51.536;3.816;2024-03-06T12:40:23;20.88;;;13.80;;
48685;SDS011;34485;51.536;3.816;2024-03-06T12:42:49;23.67;;;16.08;;
48685;SDS011;34485;51.536;3.816;2024-03-06T12:45:17;26.73;;;16.13;;
48685;SDS011;34485;51.536;3.816;2024-03-06T12:47:43;23.02;;;15.25;;
48685;SDS011;34485;51.536;3.816;2024-03-06T12:50:10;27.65;;;15.43;;
48685;SDS011;34485;51.536;3.816;2024-03-06T12:52:37;23.65;;;15.25;;
48685;SDS011;34485;51.536;3.816;2024-03-06T12:55:03;22.63;;;14.30;;
48685;SDS011;34485;51.536;3.816;2024-03-06T12:57:30;20.20;;;13.30;;
48685;SDS011;34485;51.536;3.816;2024-03-06T12:59:56;24.35;;;15.35;;
48685;SDS011;34485;51.536;3.816;2024-03-06T13:02:22;23.83;;;16.42;;
48685;SDS011;34485;51.536;3.816;2024-03-06T13:04:47;26.83;;;17.20;;
48685;SDS011;34485;51.536;3.816;2024-03-06T13:07:14;28.33;;;17.42;;
48685;SDS011;34485;51.536;3.816;2024-03-06T13:09:39;26.63;;;17.30;;
48685;SDS011;34485;51.536;3.816;2024-03-06T13:12:05;28.47;;;17.20;;
48685;SDS011;34485;51.536;3.816;2024-03-06T13:14:31;28.20;;;17.08;;
48685;SDS011;34485;51.536;3.816;2024-03-06T13:16:57;27.85;;;16.95;;
48685;SDS011;34485;51.536;3.816;2024-03-06T13:19:23;25.93;;;16.73;;
48685;SDS011;34485;51.536;3.816;2024-03-06T13:21:49;26.67;;;17.02;;
48685;SDS011;34485;51.536;3.816;2024-03-06T13:24:14;30.10;;;17.60;;
48685;SDS011;34485;51.536;3.816;2024-03-06T13:26:40;26.88;;;16.77;;
48685;SDS011;34485;51.536;3.816;2024-03-06T13:29:06;25.43;;;15.47;;
48685;SDS011;34485;51.536;3.816;2024-03-06T13:31:32;26.50;;;17.05;;
48685;SDS011;34485;51.536;3.816;2024-03-06T13:34:02;21.92;;;14.73;;
48685;SDS011;34485;51.536;3.816;2024-03-06T13:36:28;26.52;;;16.85;;
48685;SDS011;34485;51.536;3.816;2024-03-06T13:38:54;29.08;;;16.30;;
48685;SDS011;34485;51.536;3.816;2024-03-06T13:41:20;28.93;;;16.97;;
48685;SDS011;34485;51.536;3.816;2024-03-06T13:43:46;28.85;;;16.95;;
48685;SDS011;34485;51.536;3.816;2024-03-06T13:46:12;27.87;;;16.80;;
48685;SDS011;34485;51.536;3.816;2024-03-06T13:48:38;31.02;;;17.63;;
48685;SDS011;34485;51.536;3.816;2024-03-06T13:51:03;27.00;;;16.80;;
48685;SDS011;34485;51.536;3.816;2024-03-06T13:53:30;27.75;;;16.02;;
48685;SDS011;34485;51.536;3.816;2024-03-06T13:55:56;24.50;;;15.27;;
48685;SDS011;34485;51.536;3.816;2024-03-06T13:58:22;23.75;;;15.07;;
48685;SDS011;34485;51.536;3.816;2024-03-06T14:00:48;22.80;;;14.60;;
48685;SDS011;34485;51.536;3.816;2024-03-06T14:03:13;21.48;;;13.75;;
48685;SDS011;34485;51.536;3.816;2024-03-06T14:05:39;27.97;;;15.13;;
48685;SDS011;34485;51.536;3.816;2024-03-06T14:08:05;26.48;;;17.70;;
48685;SDS011;34485;51.536;3.816;2024-03-06T14:10:31;27.70;;;17.40;;
48685;SDS011;34485;51.536;3.816;2024-03-06T14:13:02;31.07;;;18.03;;
48685;SDS011;34485;51.536;3.816;2024-03-06T14:15:28;29.55;;;18.33;;
48685;SDS011;34485;51.536;3.816;2024-03-06T14:17:54;30.48;;;18.40;;
48685;SDS011;34485;51.536;3.816;2024-03-06T14:20:20;30.07;;;18.20;;
48685;SDS011;34485;51.536;3.816;2024-03-06T14:22:46;28.52;;;18.65;;
48685;SDS011;34485;51.536;3.816;2024-03-06T14:25:12;32.65;;;17.75;;
48685;SDS011;34485;51.536;3.816;2024-03-06T14:27:38;29.60;;;17.27;;
48685;SDS011;34485;51.536;3.816;2024-03-06T14:30:04;27.20;;;16.80;;